Terminal Aerodrome Forecast
Issued by NWS Charleston, WV

Current Version | Previous Version | Graphics & Text | Print | Product List | Glossary On
Versions: 1 2 3 4 5 6 7 8 9 10 11 12 13 14 15 16 17 18 19 20 21 22 23 24 25 26 27 28 29 30 31 32 33 34
000
FTUS41 KRLX 170500
TAFCRW
TAF
KCRW 170523Z 1706/1806 23007KT P6SM BKN018 OVC035
     FM170900 VRB03KT 4SM BR SCT015 BKN025
     FM171000 00000KT 4SM BR SCT035
     FM171200 00000KT P6SM BKN250
     FM171700 21010G21KT P6SM BKN250
     FM180000 23006KT P6SM BKN040=

USA.gov is the U.S. government's official web portal to all federal, state and local government web resources and services.